11:03
Airports
History
Links
Donate
Help keep this website running!
PayPal
Bitcoin
Information on this page is community maintained and may be outdated or inaccurate and is intended for reference only or PC simulator navigating!
Always use approved charts for navigating.
LFIS
St InglevertEdited 30-Jun-2011
St Inglevert (LFIS)
Saint-Inglevert, Nord-Pas-de-Calais, France (62250)
(U)
Lat/Lng:50° 52' 57.35" N / 1° 44' 9.46" E
50.882598 / 1.735962
Elevation:442'ft 135mMSL
ID / ICAO:LFIS
Runways:1
Longest:(03-21) 595.5m 1,954ft Asphalt
Beacon:White-Green
Distance To
Airport ID:
Nearby VORs <50NM
Nearby NDBs
Nearby WeatherUpdated 04-30-17 10:30 GMT
Nearby weather at LFAT, Le Touquet Paris Plage located 25.7 nautical miles from LFIS
Altimeter: 29.59
Visibility: 6.2 statute miles
Wind: 15 knots (130°)
Temp: 15°c 59°f
Humidity: 47.7%

METAR: LFAT 301030Z AUTO 13015KT CAVOK 15/04 Q1002 NOSIG

(Powered by phpweather)
Runway 03 / 21
Dimensions:595.5 x 39.9m 1954' x 131'ft
Surface:Asphalt
Runway 03 [A]Runway 21 [B]
Heading:029°TH 209°TH
Lat:
Lng:
50° 52' 48.88"N
1° 44' 1.77"E
50° 53' 5.82"N
1° 44' 17.16"E
Google Map
Nearby Airports
(C) Calais Dunkerque 11.0 NM
LFAC ENE 60°
(C) Wizernes 24.2 NM
LFQN ESE 116°
(C) Le Touquet Paris Plage 25.7 NM
LFAT (WX) S 191°
(C) Berck Sur Mer 32.2 NM
LFAM S 191°
(U) Aire sur la Lys 35.0 NM
LF01 ESE 118°
(C) Lydd 35.1 NM
EGMD W 278°
(C) Manston 36.0 NM
EGMH (WX) NNW 331°
VFR Chart
Flight Planning at SkyVector.com